Time;durP1;ratioP1;P1;durP2;ratioP2;P2;SDS_P1;SDS_P2;PMS_P1;PMS_P2;Temp;Humidity;BMP_temperature;BMP_pressure;BME280_temperature;BME280_humidity;BME280_pressure;Samples;Min_cycle;Max_cycle;Signal;HPM_P1;HPM_P2
2022/09/01 00:01:51;;;;;;;4.60;4.27;;;;;;;;;;5023972;28;20437;-74
2022/09/01 00:04:19;;;;;;;4.87;4.13;;;;;;;;;;5053865;28;20468;-72
2022/09/01 00:06:46;;;;;;;3.87;3.57;;;;;;;;;;5037376;28;20431;-75
2022/09/01 00:09:15;;;;;;;5.83;4.00;;;;;;;;;;5071424;28;20924;-73
2022/09/01 00:11:43;;;;;;;4.20;3.90;;;;;;;;;;5053413;28;20479;-72
2022/09/01 00:14:17;;;;;;;3.93;3.63;;;;;;;;;;5037786;28;20432;-72
2022/09/01 00:16:56;;;;;;;4.53;4.23;;;;;;;;;;5053572;28;20424;-73
2022/09/01 00:19:23;;;;;;;3.80;3.50;;;;;;;;;;5053465;28;20506;-73
2022/09/01 00:21:50;;;;;;;8.23;4.67;;;;;;;;;;5033439;28;20487;-73
2022/09/01 00:24:17;;;;;;;3.97;3.67;;;;;;;;;;5051428;28;20909;-74
2022/09/01 00:26:44;;;;;;;4.93;3.77;;;;;;;;;;5053570;28;20428;-73
2022/09/01 00:29:11;;;;;;;4.00;3.70;;;;;;;;;;5070451;28;20876;-72
2022/09/01 00:31:38;;;;;;;4.57;4.17;;;;;;;;;;5036570;28;20479;-73
2022/09/01 00:34:04;;;;;;;5.63;4.37;;;;;;;;;;5036619;28;20515;-74
2022/09/01 00:36:31;;;;;;;4.77;4.37;;;;;;;;;;5037114;28;20467;-74
2022/09/01 00:38:57;;;;;;;3.90;3.60;;;;;;;;;;5036499;28;20427;-73
2022/09/01 00:41:26;;;;;;;4.77;4.17;;;;;;;;;;5052878;28;20489;-72
2022/09/01 00:43:55;;;;;;;5.47;4.90;;;;;;;;;;5052985;28;20523;-72
2022/09/01 00:46:23;;;;;;;5.00;4.70;;;;;;;;;;5036620;28;20476;-73
2022/09/01 00:49:00;;;;;;;4.10;3.90;;;;;;;;;;5053094;28;20448;-72
2022/09/01 00:51:27;;;;;;;4.73;4.10;;;;;;;;;;5053858;28;20458;-72
2022/09/01 00:53:55;;;;;;;5.57;4.50;;;;;;;;;;5037326;28;20467;-72
2022/09/01 00:56:22;;;;;;;5.00;4.60;;;;;;;;;;5052834;28;20814;-73
2022/09/01 00:58:50;;;;;;;4.30;4.00;;;;;;;;;;5052970;28;20543;-73
2022/09/01 01:01:17;;;;;;;4.87;4.57;;;;;;;;;;5052873;28;20468;-73
2022/09/01 01:03:45;;;;;;;4.53;4.13;;;;;;;;;;5036467;28;20443;-72
2022/09/01 01:06:14;;;;;;;4.60;4.30;;;;;;;;;;5052838;28;20425;-72
2022/09/01 01:08:43;;;;;;;4.87;3.60;;;;;;;;;;5036340;28;20811;-72
2022/09/01 01:11:17;;;;;;;8.03;4.00;;;;;;;;;;5052639;28;20514;-73
2022/09/01 01:13:48;;;;;;;5.70;4.37;;;;;;;;;;5032980;28;20487;-73
2022/09/01 01:16:14;;;;;;;4.70;4.33;;;;;;;;;;5064933;28;20435;-72
2022/09/01 01:18:41;;;;;;;4.23;3.83;;;;;;;;;;5052839;28;20667;-72
2022/09/01 01:24:01;;;;;;;4.00;3.70;;;;;;;;;;5052584;28;21001;-73
2022/09/01 01:26:27;;;;;;;4.00;3.60;;;;;;;;;;5035987;28;20936;-73
2022/09/01 01:28:54;;;;;;;4.60;4.30;;;;;;;;;;5026303;28;20532;-72
2022/09/01 01:31:22;;;;;;;4.40;3.50;;;;;;;;;;5035505;28;20463;-72
2022/09/01 01:33:51;;;;;;;4.43;4.03;;;;;;;;;;5052529;28;20433;-72
2022/09/01 01:36:25;;;;;;;3.83;3.53;;;;;;;;;;5035870;28;20543;-73
2022/09/01 01:38:54;;;;;;;5.23;3.80;;;;;;;;;;5039074;28;20447;-71
2022/09/01 01:41:23;;;;;;;4.37;3.80;;;;;;;;;;5056072;28;20464;-72
2022/09/01 01:43:49;;;;;;;4.30;4.00;;;;;;;;;;5056277;28;20436;-72
2022/09/01 01:46:17;;;;;;;3.80;3.33;;;;;;;;;;5056109;28;20464;-72
2022/09/01 01:48:46;;;;;;;4.50;4.10;;;;;;;;;;5039531;28;20437;-72
2022/09/01 01:51:16;;;;;;;5.10;3.87;;;;;;;;;;5039555;28;20835;-72
2022/09/01 01:53:43;;;;;;;4.83;4.43;;;;;;;;;;5055883;28;20436;-72
2022/09/01 01:56:10;;;;;;;4.70;4.00;;;;;;;;;;5039399;28;20877;-73
2022/09/01 01:58:39;;;;;;;5.07;4.57;;;;;;;;;;5055763;28;20936;-73
2022/09/01 02:01:11;;;;;;;4.73;4.30;;;;;;;;;;5039809;28;20464;-73
2022/09/01 02:03:38;;;;;;;6.10;3.90;;;;;;;;;;5055788;28;20444;-72
2022/09/01 02:06:06;;;;;;;4.00;3.60;;;;;;;;;;5055947;28;20420;-72
2022/09/01 02:08:34;;;;;;;3.70;3.40;;;;;;;;;;5055544;28;20482;-73
2022/09/01 02:11:04;;;;;;;4.40;4.00;;;;;;;;;;5038966;28;20452;-73
2022/09/01 02:13:30;;;;;;;9.67;4.17;;;;;;;;;;5038978;28;20443;-73
2022/09/01 02:16:00;;;;;;;4.40;4.00;;;;;;;;;;5055441;28;20487;-73
2022/09/01 02:18:34;;;;;;;4.30;4.00;;;;;;;;;;5055411;28;20468;-73
2022/09/01 02:21:01;;;;;;;6.87;4.00;;;;;;;;;;5055488;28;20539;-72
2022/09/01 02:23:28;;;;;;;4.17;3.77;;;;;;;;;;5047940;28;20483;-72
2022/09/01 02:25:59;;;;;;;4.90;3.80;;;;;;;;;;5032810;28;20428;-72
2022/09/01 02:28:48;;;;;;;4.23;3.93;;;;;;;;;;5035400;28;20456;-72
2022/09/01 02:31:26;;;;;;;6.00;3.90;;;;;;;;;;5056929;28;20428;-73
2022/09/01 02:33:54;;;;;;;3.83;3.57;;;;;;;;;;5038851;28;20472;-73
2022/09/01 02:36:21;;;;;;;5.00;3.63;;;;;;;;;;5055082;28;20445;-73
2022/09/01 02:38:48;;;;;;;5.70;4.70;;;;;;;;;;5038511;28;20490;-72
2022/09/01 02:41:21;;;;;;;3.53;3.23;;;;;;;;;;5039681;28;20472;-73
2022/09/01 02:43:48;;;;;;;4.37;4.07;;;;;;;;;;5049418;28;20470;-73
2022/09/01 02:46:15;;;;;;;3.83;3.53;;;;;;;;;;5055063;28;20482;-72
2022/09/01 02:48:44;;;;;;;4.80;3.53;;;;;;;;;;5038579;28;20433;-72
2022/09/01 02:51:14;;;;;;;3.87;3.53;;;;;;;;;;5054176;28;20854;-72
2022/09/01 02:53:41;;;;;;;4.27;3.97;;;;;;;;;;5054732;28;20432;-73
2022/09/01 02:56:13;;;;;;;8.20;5.07;;;;;;;;;;5054700;28;20967;-73
2022/09/01 02:58:46;;;;;;;4.70;4.30;;;;;;;;;;5038309;28;20532;-73
2022/09/01 03:01:13;;;;;;;5.40;4.57;;;;;;;;;;5054632;28;20460;-72
2022/09/01 03:03:40;;;;;;;4.70;4.33;;;;;;;;;;5054626;28;20425;-72
2022/09/01 03:06:08;;;;;;;4.27;3.87;;;;;;;;;;5038102;28;20439;-72
2022/09/01 03:08:37;;;;;;;4.20;3.90;;;;;;;;;;5072489;28;20827;-73
2022/09/01 03:11:09;;;;;;;4.90;4.40;;;;;;;;;;5054488;28;20456;-73
2022/09/01 03:13:39;;;;;;;4.30;4.00;;;;;;;;;;5054472;28;20494;-73
2022/09/01 03:16:07;;;;;;;4.50;4.10;;;;;;;;;;5054618;28;20444;-73
2022/09/01 03:18:34;;;;;;;4.70;4.40;;;;;;;;;;5038427;28;20944;-73
2022/09/01 03:21:01;;;;;;;9.43;5.00;;;;;;;;;;5054438;28;20882;-72
2022/09/01 03:23:30;;;;;;;4.23;3.83;;;;;;;;;;5054615;28;20952;-72
2022/09/01 03:25:57;;;;;;;4.07;3.67;;;;;;;;;;5054592;28;20432;-72
2022/09/01 03:28:24;;;;;;;5.37;4.30;;;;;;;;;;5054424;28;20502;-73
2022/09/01 03:30:52;;;;;;;4.80;4.40;;;;;;;;;;5054248;28;20484;-72
2022/09/01 03:33:20;;;;;;;4.90;4.47;;;;;;;;;;5054373;28;20464;-72
2022/09/01 03:35:47;;;;;;;4.63;4.33;;;;;;;;;;5054252;28;20440;-72
2022/09/01 03:38:20;;;;;;;4.03;3.73;;;;;;;;;;5045452;28;20441;-72
2022/09/01 03:40:49;;;;;;;4.53;4.23;;;;;;;;;;5034185;28;20479;-72
2022/09/01 03:43:18;;;;;;;5.17;4.77;;;;;;;;;;5054082;28;20516;-72
2022/09/01 03:45:45;;;;;;;5.50;5.00;;;;;;;;;;5053992;28;20432;-72
2022/09/01 03:48:15;;;;;;;4.77;4.47;;;;;;;;;;5037681;28;20524;-72
2022/09/01 03:50:46;;;;;;;5.50;5.10;;;;;;;;;;5053907;28;20499;-72
2022/09/01 03:53:14;;;;;;;4.90;4.50;;;;;;;;;;5053908;28;20458;-73
2022/09/01 03:55:43;;;;;;;4.27;3.97;;;;;;;;;;5053894;28;20440;-73
2022/09/01 03:58:11;;;;;;;5.77;4.73;;;;;;;;;;5037364;28;20955;-72
2022/09/01 04:00:39;;;;;;;6.67;4.40;;;;;;;;;;5053667;28;20857;-73
2022/09/01 04:03:21;;;;;;;4.50;4.10;;;;;;;;;;5037454;28;20428;-72
2022/09/01 04:05:58;;;;;;;5.70;5.30;;;;;;;;;;5053816;28;20441;-72
2022/09/01 04:08:33;;;;;;;5.37;4.87;;;;;;;;;;5037176;28;20467;-72
2022/09/01 04:11:03;;;;;;;4.87;4.47;;;;;;;;;;5025746;28;20471;-73
2022/09/01 04:13:36;;;;;;;5.03;4.63;;;;;;;;;;5052728;28;20941;-73
2022/09/01 04:16:09;;;;;;;5.97;5.57;;;;;;;;;;5037235;28;20471;-73
2022/09/01 04:18:38;;;;;;;5.27;4.87;;;;;;;;;;5037167;28;20484;-72
2022/09/01 04:21:06;;;;;;;5.20;4.80;;;;;;;;;;5053387;28;20493;-73
2022/09/01 04:23:35;;;;;;;5.20;4.70;;;;;;;;;;5053414;28;20732;-73
2022/09/01 04:26:10;;;;;;;4.43;4.03;;;;;;;;;;5053497;28;20511;-72
2022/09/01 04:28:38;;;;;;;5.57;5.07;;;;;;;;;;5037141;28;20818;-72
2022/09/01 04:31:07;;;;;;;4.00;3.67;;;;;;;;;;5053226;28;20464;-73
2022/09/01 04:33:38;;;;;;;5.80;4.30;;;;;;;;;;5037197;28;20436;-72
2022/09/01 04:36:22;;;;;;;4.63;4.03;;;;;;;;;;5053424;28;20444;-73
2022/09/01 04:38:53;;;;;;;5.10;4.70;;;;;;;;;;5040538;28;20460;-73
2022/09/01 04:41:24;;;;;;;4.30;4.00;;;;;;;;;;5054961;28;20474;-72
2022/09/01 04:43:55;;;;;;;5.90;5.17;;;;;;;;;;5054679;28;20447;-72
2022/09/01 04:46:22;;;;;;;5.63;5.13;;;;;;;;;;5036781;28;20494;-72
2022/09/01 04:48:50;;;;;;;6.17;5.10;;;;;;;;;;5036408;28;20436;-73
2022/09/01 04:51:19;;;;;;;5.70;5.20;;;;;;;;;;5036687;28;20479;-73
2022/09/01 04:53:50;;;;;;;5.23;4.57;;;;;;;;;;5053079;28;20996;-73
2022/09/01 04:56:18;;;;;;;5.47;4.90;;;;;;;;;;5053059;28;20512;-74
2022/09/01 04:58:54;;;;;;;5.40;5.00;;;;;;;;;;5052992;28;20476;-72
2022/09/01 05:01:23;;;;;;;5.20;4.70;;;;;;;;;;5071051;28;20513;-72
2022/09/01 05:03:58;;;;;;;4.83;4.43;;;;;;;;;;5070959;28;20429;-72
2022/09/01 05:06:38;;;;;;;5.20;4.60;;;;;;;;;;5052967;28;20480;-72
2022/09/01 05:09:05;;;;;;;5.97;5.07;;;;;;;;;;5052820;28;20519;-72
2022/09/01 05:12:10;;;;;;;4.27;3.70;;;;;;;;;;5049887;28;20448;-72
2022/09/01 05:14:47;;;;;;;4.83;4.47;;;;;;;;;;5054062;28;20469;-72
2022/09/01 05:17:17;;;;;;;5.30;4.50;;;;;;;;;;5056750;28;20962;-72
2022/09/01 05:19:49;;;;;;;7.20;4.90;;;;;;;;;;5040407;28;20456;-72
2022/09/01 05:22:20;;;;;;;7.33;5.33;;;;;;;;;;5056770;28;20468;-72
2022/09/01 05:25:11;;;;;;;6.23;5.40;;;;;;;;;;5057013;28;20805;-72
2022/09/01 05:27:49;;;;;;;5.50;5.10;;;;;;;;;;5057156;28;20486;-72
2022/09/01 05:30:18;;;;;;;5.30;4.80;;;;;;;;;;5056634;28;20448;-72
2022/09/01 05:32:47;;;;;;;5.53;4.40;;;;;;;;;;5056483;28;20939;-72
2022/09/01 05:35:16;;;;;;;4.70;4.30;;;;;;;;;;5056594;28;20446;-72
2022/09/01 05:37:43;;;;;;;4.43;4.03;;;;;;;;;;5056625;28;20818;-72
2022/09/01 05:40:14;;;;;;;5.07;4.67;;;;;;;;;;5056385;28;20482;-72
2022/09/01 05:42:43;;;;;;;6.20;5.37;;;;;;;;;;5056393;28;20440;-73
2022/09/01 05:45:14;;;;;;;8.53;4.50;;;;;;;;;;5039810;28;20437;-73
2022/09/01 05:47:41;;;;;;;7.60;4.20;;;;;;;;;;5056754;28;20412;-73
2022/09/01 05:50:09;;;;;;;5.27;4.00;;;;;;;;;;5039854;28;20456;-73
2022/09/01 05:52:43;;;;;;;5.00;4.60;;;;;;;;;;5056319;28;20960;-72
2022/09/01 05:55:10;;;;;;;4.13;3.83;;;;;;;;;;5039763;28;20439;-73
2022/09/01 05:57:40;;;;;;;4.83;4.23;;;;;;;;;;5056274;28;20527;-73
2022/09/01 06:00:11;;;;;;;5.20;4.40;;;;;;;;;;5056075;28;20453;-74
2022/09/01 06:02:41;;;;;;;4.27;3.97;;;;;;;;;;5074525;28;20484;-72
2022/09/01 06:05:14;;;;;;;4.30;3.97;;;;;;;;;;5056050;28;20432;-72
2022/09/01 06:07:41;;;;;;;5.53;3.97;;;;;;;;;;5039540;28;20808;-72
2022/09/01 06:10:09;;;;;;;4.67;4.27;;;;;;;;;;5039440;28;20453;-73
2022/09/01 06:12:36;;;;;;;4.90;4.40;;;;;;;;;;5055941;28;20996;-73
2022/09/01 06:15:06;;;;;;;4.23;3.90;;;;;;;;;;5055854;28;20996;-73
2022/09/01 06:17:33;;;;;;;4.80;4.30;;;;;;;;;;5039603;28;20523;-73
2022/09/01 06:20:09;;;;;;;4.23;3.93;;;;;;;;;;5039555;28;20455;-73
2022/09/01 06:22:36;;;;;;;3.43;3.23;;;;;;;;;;5055730;28;20467;-73
2022/09/01 06:25:05;;;;;;;4.23;3.93;;;;;;;;;;5055865;28;20432;-73
2022/09/01 06:27:41;;;;;;;4.00;3.70;;;;;;;;;;5054683;28;20440;-73
2022/09/01 06:30:13;;;;;;;4.43;3.50;;;;;;;;;;5055735;28;20536;-73
2022/09/01 06:32:48;;;;;;;4.40;4.00;;;;;;;;;;5055557;28;20943;-73
2022/09/01 06:35:16;;;;;;;3.27;3.07;;;;;;;;;;5055549;28;20440;-73
2022/09/01 06:37:44;;;;;;;3.33;3.13;;;;;;;;;;5034359;28;21118;-73
2022/09/01 06:40:19;;;;;;;3.10;2.90;;;;;;;;;;5048045;28;20468;-73
2022/09/01 06:42:47;;;;;;;3.97;3.57;;;;;;;;;;5038707;28;20992;-72
2022/09/01 06:45:15;;;;;;;3.07;2.87;;;;;;;;;;5055465;28;20464;-74
2022/09/01 06:47:43;;;;;;;3.70;3.40;;;;;;;;;;5055210;28;20436;-73
2022/09/01 06:50:13;;;;;;;4.07;3.67;;;;;;;;;;5054983;28;20460;-73
2022/09/01 06:53:09;;;;;;;3.47;3.07;;;;;;;;;;5041442;28;20925;-74
2022/09/01 06:55:57;;;;;;;3.33;3.13;;;;;;;;;;5041489;28;20447;-73
2022/09/01 06:58:24;;;;;;;4.40;3.30;;;;;;;;;;5055421;28;20445;-73
2022/09/01 07:00:51;;;;;;;3.90;3.00;;;;;;;;;;5038544;28;20461;-73
2022/09/01 07:03:18;;;;;;;4.67;4.07;;;;;;;;;;5038735;28;20815;-73
2022/09/01 07:06:18;;;;;;;7.60;4.17;;;;;;;;;;5007303;28;20445;-73
2022/09/01 07:09:24;;;;;;;3.37;3.07;;;;;;;;;;5063914;28;20867;-73
2022/09/01 07:12:22;;;;;;;4.50;3.40;;;;;;;;;;5043790;28;20440;-73
2022/09/01 07:14:52;;;;;;;4.80;3.37;;;;;;;;;;5055031;28;20451;-73
2022/09/01 07:17:40;;;;;;;3.90;2.87;;;;;;;;;;5034757;28;20510;-73
2022/09/01 07:20:10;;;;;;;3.50;3.20;;;;;;;;;;5048152;28;20465;-73
2022/09/01 07:22:54;;;;;;;4.03;3.73;;;;;;;;;;5049657;28;20555;-73
2022/09/01 07:25:40;;;;;;;3.73;3.23;;;;;;;;;;5054636;28;20463;-73
2022/09/01 07:28:34;;;;;;;3.20;3.00;;;;;;;;;;5043076;28;20445;-73
2022/09/01 07:31:04;;;;;;;4.13;3.73;;;;;;;;;;5038056;28;20487;-73
2022/09/01 07:33:53;;;;;;;8.40;4.00;;;;;;;;;;5054331;28;20495;-73
2022/09/01 07:36:41;;;;;;;2.90;2.70;;;;;;;;;;5040567;28;20432;-74
2022/09/01 07:39:30;;;;;;;3.50;3.20;;;;;;;;;;5056308;28;20991;-74
2022/09/01 07:42:43;;;;;;;5.07;3.10;;;;;;;;;;5035376;28;20555;-74
2022/09/01 07:45:54;;;;;;;4.70;3.00;;;;;;;;;;5071935;28;20468;-74
2022/09/01 07:48:26;;;;;;;3.90;3.20;;;;;;;;;;5038237;28;20452;-74
2022/09/01 07:51:17;;;;;;;3.73;3.43;;;;;;;;;;5040263;28;20448;-74
2022/09/01 07:54:05;;;;;;;5.87;3.50;;;;;;;;;;5054386;28;20456;-77
2022/09/01 07:56:32;;;;;;;3.53;3.23;;;;;;;;;;5037951;28;20941;-74
2022/09/01 07:59:06;;;;;;;4.90;3.67;;;;;;;;;;5053994;28;20845;-74
2022/09/01 08:01:36;;;;;;;3.40;3.10;;;;;;;;;;5053988;28;20915;-74
2022/09/01 08:04:03;;;;;;;3.03;2.83;;;;;;;;;;5034026;28;20803;-74
2022/09/01 08:06:30;;;;;;;5.07;3.40;;;;;;;;;;5024119;28;21013;-74
2022/09/01 08:09:06;;;;;;;4.37;3.10;;;;;;;;;;5038809;28;20428;-74
2022/09/01 08:11:37;;;;;;;3.50;3.20;;;;;;;;;;5037978;28;21027;-74
2022/09/01 08:14:23;;;;;;;3.33;3.03;;;;;;;;;;5056792;28;20456;-74
2022/09/01 08:16:51;;;;;;;4.67;3.20;;;;;;;;;;5053596;28;20948;-74
2022/09/01 08:19:19;;;;;;;4.20;3.10;;;;;;;;;;5037060;28;20990;-74
2022/09/01 08:22:11;;;;;;;3.27;2.87;;;;;;;;;;5068459;28;20456;-74
2022/09/01 08:24:47;;;;;;;3.90;2.60;;;;;;;;;;5053490;28;20428;-74
2022/09/01 08:27:14;;;;;;;3.40;3.20;;;;;;;;;;5053446;28;20516;-74
2022/09/01 08:29:42;;;;;;;2.73;2.40;;;;;;;;;;5053401;28;20983;-74
2022/09/01 08:32:10;;;;;;;5.60;3.07;;;;;;;;;;5053526;28;21409;-75
2022/09/01 08:34:37;;;;;;;3.93;3.27;;;;;;;;;;5053372;28;20440;-75
2022/09/01 08:37:04;;;;;;;3.90;2.83;;;;;;;;;;5053324;28;20431;-74
2022/09/01 08:39:31;;;;;;;5.40;2.97;;;;;;;;;;5058008;28;20452;-74
2022/09/01 08:42:17;;;;;;;2.47;2.27;;;;;;;;;;5053249;28;20469;-73
2022/09/01 08:44:56;;;;;;;3.43;2.80;;;;;;;;;;5036828;28;20463;-74
2022/09/01 08:47:23;;;;;;;3.20;2.87;;;;;;;;;;5033348;28;20460;-75
2022/09/01 08:50:11;;;;;;;3.53;3.23;;;;;;;;;;5050951;28;20570;-75
2022/09/01 08:53:14;;;;;;;2.53;2.33;;;;;;;;;;5063034;28;20959;-76
2022/09/01 08:55:46;;;;;;;3.80;2.80;;;;;;;;;;5060095;28;20440;-75
2022/09/01 08:58:15;;;;;;;2.43;2.23;;;;;;;;;;5043519;28;20994;-74
2022/09/01 09:01:26;;;;;;;2.53;2.33;;;;;;;;;;5077657;28;20448;-75
2022/09/01 09:04:11;;;;;;;2.57;2.17;;;;;;;;;;5060285;28;20412;-74
2022/09/01 09:06:44;;;;;;;2.80;2.60;;;;;;;;;;5044030;28;20432;-75
2022/09/01 09:09:11;;;;;;;4.80;2.20;;;;;;;;;;5043996;28;20436;-75
2022/09/01 09:11:40;;;;;;;3.57;2.47;;;;;;;;;;5059718;28;20432;-74
2022/09/01 09:14:13;;;;;;;3.10;2.73;;;;;;;;;;5043484;28;20436;-74
2022/09/01 09:16:42;;;;;;;2.60;2.50;;;;;;;;;;5077845;28;20776;-74
2022/09/01 09:19:17;;;;;;;2.17;2.00;;;;;;;;;;5059845;28;20450;-74
2022/09/01 09:21:47;;;;;;;2.60;2.40;;;;;;;;;;5043163;28;20459;-75
2022/09/01 09:24:19;;;;;;;3.57;2.50;;;;;;;;;;5078092;28;20913;-73
2022/09/01 09:26:49;;;;;;;2.70;2.50;;;;;;;;;;5060410;28;20461;-73
2022/09/01 09:29:15;;;;;;;2.67;2.47;;;;;;;;;;5043367;28;20857;-74
2022/09/01 09:31:44;;;;;;;9.90;3.93;;;;;;;;;;5043382;28;20462;-73
2022/09/01 09:34:16;;;;;;;3.97;1.93;;;;;;;;;;5077619;28;20474;-73
2022/09/01 09:36:45;;;;;;;2.50;2.20;;;;;;;;;;5059822;28;20835;-73
2022/09/01 09:39:19;;;;;;;3.17;2.50;;;;;;;;;;5077467;28;20995;-73
2022/09/01 09:42:12;;;;;;;2.43;2.23;;;;;;;;;;5043025;28;21007;-74
2022/09/01 09:44:42;;;;;;;3.67;2.53;;;;;;;;;;5057982;28;20494;-74
2022/09/01 09:47:10;;;;;;;10.43;3.97;;;;;;;;;;5059524;28;20436;-74
2022/09/01 09:50:11;;;;;;;2.60;2.40;;;;;;;;;;5060150;28;20470;-74
2022/09/01 09:52:37;;;;;;;3.00;2.70;;;;;;;;;;5077873;28;20479;-74
2022/09/01 09:55:06;;;;;;;2.90;2.40;;;;;;;;;;5078076;28;20456;-74
2022/09/01 09:57:37;;;;;;;2.43;2.23;;;;;;;;;;5059856;28;20456;-74
2022/09/01 10:00:17;;;;;;;2.20;2.00;;;;;;;;;;5059569;28;20499;-74
2022/09/01 10:02:44;;;;;;;2.70;2.40;;;;;;;;;;5040114;28;20468;-74
2022/09/01 10:05:26;;;;;;;3.60;2.43;;;;;;;;;;5040084;28;20431;-73
2022/09/01 10:07:53;;;;;;;3.70;3.47;;;;;;;;;;5056959;28;20482;-73
2022/09/01 10:10:25;;;;;;;2.10;2.00;;;;;;;;;;5037881;28;20457;-74
2022/09/01 10:12:52;;;;;;;5.67;3.27;;;;;;;;;;5052762;28;20847;-75
2022/09/01 10:15:21;;;;;;;3.10;2.90;;;;;;;;;;5040789;28;20544;-75
2022/09/01 10:17:50;;;;;;;3.00;2.10;;;;;;;;;;5074410;28;20451;-75
2022/09/01 10:20:22;;;;;;;2.90;2.70;;;;;;;;;;5039564;28;20469;-75
2022/09/01 10:22:49;;;;;;;3.80;3.50;;;;;;;;;;5055785;28;21076;-75
2022/09/01 10:25:24;;;;;;;4.30;3.50;;;;;;;;;;5039576;28;20435;-74
2022/09/01 10:27:57;;;;;;;5.67;3.13;;;;;;;;;;5039720;28;21012;-74
2022/09/01 10:30:24;;;;;;;3.37;2.50;;;;;;;;;;5055860;28;20444;-74
2022/09/01 10:32:54;;;;;;;3.07;2.83;;;;;;;;;;5055978;28;20535;-74
2022/09/01 10:35:25;;;;;;;4.80;3.07;;;;;;;;;;5039478;28;20433;-74
2022/09/01 10:37:53;;;;;;;3.60;2.90;;;;;;;;;;5055707;28;20822;-74
2022/09/01 10:40:31;;;;;;;2.93;2.70;;;;;;;;;;5039515;28;20464;-73
2022/09/01 10:42:59;;;;;;;3.83;3.03;;;;;;;;;;5038972;28;20464;-73
2022/09/01 10:45:32;;;;;;;4.90;2.93;;;;;;;;;;5073394;28;20425;-75
2022/09/01 10:48:37;;;;;;;3.13;2.93;;;;;;;;;;5073436;28;20425;-75
2022/09/01 10:51:20;;;;;;;2.80;2.60;;;;;;;;;;4996099;28;21019;-75
2022/09/01 10:53:56;;;;;;;2.77;2.57;;;;;;;;;;5001149;28;20466;-75
2022/09/01 10:56:45;;;;;;;5.20;2.20;;;;;;;;;;4987332;28;20411;-75
2022/09/01 10:59:16;;;;;;;3.23;2.93;;;;;;;;;;4982782;28;20522;-75
2022/09/01 11:02:08;;;;;;;4.10;2.93;;;;;;;;;;5011099;28;20467;-75
2022/09/01 11:04:58;;;;;;;2.40;2.00;;;;;;;;;;4997479;28;20442;-74
2022/09/01 11:07:30;;;;;;;2.30;2.20;;;;;;;;;;4984681;28;20466;-74
2022/09/01 11:10:46;;;;;;;2.83;2.53;;;;;;;;;;4992281;28;20451;-77
2022/09/01 11:13:14;;;;;;;3.17;2.63;;;;;;;;;;4998685;28;21005;-75
2022/09/01 11:15:44;;;;;;;5.77;2.30;;;;;;;;;;4995259;28;20543;-74
2022/09/01 11:18:15;;;;;;;2.33;2.13;;;;;;;;;;4977378;28;20832;-74
2022/09/01 11:20:44;;;;;;;3.10;2.80;;;;;;;;;;4994123;28;20455;-74
2022/09/01 11:23:29;;;;;;;4.27;2.33;;;;;;;;;;4994233;28;20550;-74
2022/09/01 11:25:55;;;;;;;3.03;2.40;;;;;;;;;;5045083;28;20425;-73
2022/09/01 11:28:42;;;;;;;2.97;2.70;;;;;;;;;;5040526;28;20535;-74
2022/09/01 11:31:19;;;;;;;2.83;2.63;;;;;;;;;;5054168;28;20810;-74
2022/09/01 11:33:55;;;;;;;2.00;1.90;;;;;;;;;;5054392;28;20567;-73
2022/09/01 11:36:22;;;;;;;3.40;2.60;;;;;;;;;;5052961;28;20718;-73
2022/09/01 11:38:53;;;;;;;2.20;2.00;;;;;;;;;;5054284;28;20433;-73
2022/09/01 11:41:27;;;;;;;4.50;2.73;;;;;;;;;;5037616;28;20507;-74
2022/09/01 11:43:56;;;;;;;2.43;2.33;;;;;;;;;;5037500;28;20468;-74
2022/09/01 11:46:28;;;;;;;3.53;2.37;;;;;;;;;;5044964;28;20853;-74
2022/09/01 11:48:56;;;;;;;1.90;1.80;;;;;;;;;;5050822;28;20421;-74
2022/09/01 11:51:23;;;;;;;2.33;2.13;;;;;;;;;;5053918;28;20448;-74
2022/09/01 11:53:50;;;;;;;2.10;2.00;;;;;;;;;;5054090;28;20482;-74
2022/09/01 11:56:27;;;;;;;3.20;2.37;;;;;;;;;;5054112;28;20463;-74
2022/09/01 11:58:54;;;;;;;3.33;2.37;;;;;;;;;;5072044;28;20456;-74
2022/09/01 12:01:22;;;;;;;2.63;1.83;;;;;;;;;;5053812;28;21031;-74
2022/09/01 12:03:51;;;;;;;2.40;2.07;;;;;;;;;;5053583;28;20483;-74
2022/09/01 12:06:23;;;;;;;2.37;2.17;;;;;;;;;;5053608;28;20420;-74
2022/09/01 12:08:52;;;;;;;2.03;1.93;;;;;;;;;;5041196;28;20486;-74
2022/09/01 12:11:29;;;;;;;4.03;1.77;;;;;;;;;;5037023;28;20513;-74
2022/09/01 12:14:03;;;;;;;3.13;2.10;;;;;;;;;;5053583;28;20515;-74
2022/09/01 12:16:38;;;;;;;2.13;1.93;;;;;;;;;;5071507;28;20943;-74
2022/09/01 12:19:05;;;;;;;2.70;2.10;;;;;;;;;;5041907;28;20479;-74
2022/09/01 12:21:32;;;;;;;4.50;2.27;;;;;;;;;;5070002;28;20474;-73
2022/09/01 12:24:12;;;;;;;4.70;2.07;;;;;;;;;;5052466;28;20500;-73
2022/09/01 12:26:39;;;;;;;2.37;2.17;;;;;;;;;;5040891;28;20412;-74
2022/09/01 12:29:06;;;;;;;3.30;1.90;;;;;;;;;;5036689;28;20513;-74
2022/09/01 12:31:33;;;;;;;2.33;1.70;;;;;;;;;;5036913;28;20959;-74
2022/09/01 12:34:03;;;;;;;1.93;1.67;;;;;;;;;;5071370;28;20424;-75
2022/09/01 12:36:30;;;;;;;2.07;1.80;;;;;;;;;;5053601;28;20822;-74
2022/09/01 12:39:16;;;;;;;2.17;1.97;;;;;;;;;;5053266;28;20769;-74
2022/09/01 12:41:44;;;;;;;1.40;1.30;;;;;;;;;;5053251;28;20472;-73
2022/09/01 12:44:31;;;;;;;2.33;1.73;;;;;;;;;;5052965;28;20492;-73
2022/09/01 12:46:59;;;;;;;2.00;1.87;;;;;;;;;;5053357;28;20421;-74
2022/09/01 12:49:37;;;;;;;2.20;1.70;;;;;;;;;;5071260;28;20501;-74
2022/09/01 12:52:18;;;;;;;2.43;1.77;;;;;;;;;;5071190;28;20431;-74
2022/09/01 12:54:47;;;;;;;2.00;1.90;;;;;;;;;;5053245;28;20424;-73
2022/09/01 12:57:26;;;;;;;1.90;1.80;;;;;;;;;;5036892;28;20463;-73
2022/09/01 13:00:14;;;;;;;2.20;1.80;;;;;;;;;;5053179;28;20436;-73
2022/09/01 13:02:42;;;;;;;3.37;2.57;;;;;;;;;;5042692;28;20555;-73
2022/09/01 13:05:18;;;;;;;2.90;1.67;;;;;;;;;;5071010;28;20429;-74
2022/09/01 13:07:45;;;;;;;3.30;2.37;;;;;;;;;;5052844;28;20958;-73
2022/09/01 13:10:11;;;;;;;1.63;1.50;;;;;;;;;;5052985;28;20533;-73
2022/09/01 13:12:40;;;;;;;1.97;1.50;;;;;;;;;;5036459;28;20502;-73
2022/09/01 13:15:08;;;;;;;2.03;1.93;;;;;;;;;;5052814;28;20436;-74
2022/09/01 13:17:34;;;;;;;2.27;1.33;;;;;;;;;;5052792;28;20540;-74
2022/09/01 13:20:01;;;;;;;1.73;1.63;;;;;;;;;;5070744;28;20480;-75
2022/09/01 13:22:27;;;;;;;2.80;1.90;;;;;;;;;;5052747;28;20785;-75
2022/09/01 13:24:54;;;;;;;2.60;1.50;;;;;;;;;;5053003;28;20431;-74
2022/09/01 13:27:22;;;;;;;1.67;1.57;;;;;;;;;;5036358;28;20531;-74
2022/09/01 13:29:50;;;;;;;2.20;1.83;;;;;;;;;;5070639;28;20452;-74
2022/09/01 13:32:17;;;;;;;2.93;1.60;;;;;;;;;;5052708;28;20786;-75
2022/09/01 13:34:47;;;;;;;2.50;1.77;;;;;;;;;;5070708;28;20780;-74
2022/09/01 13:37:16;;;;;;;3.87;2.50;;;;;;;;;;5074131;28;20826;-74
2022/09/01 13:39:43;;;;;;;2.60;2.17;;;;;;;;;;5056330;28;21014;-74
2022/09/01 13:42:09;;;;;;;1.67;1.57;;;;;;;;;;5056461;28;20475;-74
2022/09/01 13:44:36;;;;;;;2.07;1.87;;;;;;;;;;5048701;28;20461;-74
2022/09/01 13:47:02;;;;;;;3.93;1.63;;;;;;;;;;5069452;28;20478;-75
2022/09/01 13:49:50;;;;;;;1.90;1.57;;;;;;;;;;5073934;28;20460;-74
2022/09/01 13:52:41;;;;;;;22.03;5.47;;;;;;;;;;5029241;28;20433;-74
2022/09/01 13:55:12;;;;;;;3.80;1.97;;;;;;;;;;5039633;28;20428;-74
2022/09/01 13:57:39;;;;;;;2.03;1.83;;;;;;;;;;5074120;28;20486;-74
2022/09/01 14:00:09;;;;;;;2.27;1.73;;;;;;;;;;5074146;28;20875;-74
2022/09/01 14:02:39;;;;;;;2.30;1.50;;;;;;;;;;5074408;28;20410;-74
2022/09/01 14:05:06;;;;;;;3.47;2.20;;;;;;;;;;5055974;28;20975;-74
2022/09/01 14:07:33;;;;;;;9.83;2.97;;;;;;;;;;5056067;28;20482;-74
2022/09/01 14:09:59;;;;;;;5.10;2.27;;;;;;;;;;5055902;28;20875;-74
2022/09/01 14:12:26;;;;;;;3.00;2.23;;;;;;;;;;5073836;28;20832;-74
2022/09/01 14:14:52;;;;;;;7.00;3.10;;;;;;;;;;5055777;28;20436;-74
2022/09/01 14:17:39;;;;;;;3.10;1.90;;;;;;;;;;5055661;28;20523;-74
2022/09/01 14:20:07;;;;;;;6.93;2.07;;;;;;;;;;5073554;28;20459;-74
2022/09/01 14:22:34;;;;;;;2.80;2.00;;;;;;;;;;5056356;28;20464;-73
2022/09/01 14:25:04;;;;;;;2.50;2.20;;;;;;;;;;5056258;28;20486;-73
2022/09/01 14:27:30;;;;;;;3.00;1.63;;;;;;;;;;5040834;28;20443;-74
2022/09/01 14:29:57;;;;;;;2.80;1.87;;;;;;;;;;5074001;28;20463;-75
2022/09/01 14:32:25;;;;;;;1.97;1.77;;;;;;;;;;5073468;28;20460;-75
2022/09/01 14:34:53;;;;;;;2.70;2.07;;;;;;;;;;5073491;28;20427;-74
2022/09/01 14:37:20;;;;;;;2.50;1.60;;;;;;;;;;5055649;28;20470;-74
2022/09/01 14:39:49;;;;;;;1.97;1.77;;;;;;;;;;5074519;28;20525;-74
2022/09/01 14:42:15;;;;;;;2.27;1.57;;;;;;;;;;5074761;28;20451;-75
2022/09/01 14:44:42;;;;;;;3.00;1.70;;;;;;;;;;5055381;28;20555;-75
2022/09/01 14:47:10;;;;;;;1.90;1.60;;;;;;;;;;5054703;28;20436;-74
2022/09/01 14:49:45;;;;;;;5.17;1.50;;;;;;;;;;5055128;28;20468;-75
2022/09/01 14:52:13;;;;;;;2.13;1.57;;;;;;;;;;5055850;28;20490;-75
2022/09/01 14:54:41;;;;;;;1.40;1.30;;;;;;;;;;5039944;28;20498;-74
2022/09/01 14:57:08;;;;;;;1.93;1.50;;;;;;;;;;5055012;28;20477;-75
2022/09/01 14:59:54;;;;;;;1.80;1.70;;;;;;;;;;5041723;28;20472;-74
2022/09/01 15:02:21;;;;;;;2.50;1.90;;;;;;;;;;5073084;28;20512;-75
2022/09/01 15:04:48;;;;;;;3.30;1.80;;;;;;;;;;5055526;28;20460;-74
2022/09/01 15:07:14;;;;;;;1.63;1.53;;;;;;;;;;5075120;28;20940;-76
2022/09/01 15:09:41;;;;;;;2.30;1.60;;;;;;;;;;5039217;28;20506;-74
2022/09/01 15:12:08;;;;;;;2.10;1.90;;;;;;;;;;5039294;28;20463;-75
2022/09/01 15:14:35;;;;;;;3.27;1.50;;;;;;;;;;5038854;28;20436;-75
2022/09/01 15:17:02;;;;;;;1.87;1.67;;;;;;;;;;5047314;28;20433;-75